Santa Mae Laura — CUQJ — position and weather

sailwx.info

Track history (hours):
 
Tides and Currents Weather Stations Pressure Air Temp Water Temp Dewpoint Dewpoint Depression Visibility Wind Speed Wind Dir Waves Ship Positions

Santa Mae Laura

Last reported at 2016-Oct-11 09:30 UTC. Time now 2016-Dec-05 18:44 UTC.
Position N 39°46' W 009°25'.
Warning: this ship's position is 55 days out of date.

Length 24 m.

Type: Fishing. MMSI: 263432000.

Date/timePositionNaut miles runAvg speedWind from/ knotsBaromVisibWave heightAir tempDewpointWater temp
2016-Oct-11 09:30N 39°46' W 009°25'7 0.2
2016-Oct-09 17:21N 39°53' W 009°23'1 0.3
2016-Oct-09 15:29N 39°52' W 009°23'4 3.9
2016-Oct-09 14:26N 39°56' W 009°21'103 2.5
2016-Oct-07 21:17N 41°39' W 009°19'19 0.6
2016-Oct-06 15:28N 41°58' W 009°20'133 2.7
2016-Oct-04 14:33N 39°45' W 009°26'4 4.3
2016-Oct-04 13:33N 39°41' W 009°26'2 1.8
2016-Oct-04 12:33N 39°42' W 009°27'8 3.9
2016-Oct-04 10:33N 39°50' W 009°27'3 1.5
2016-Oct-04 08:33N 39°53' W 009°30'4 3.9
2016-Oct-04 07:33N 39°49' W 009°30'  
Track history (hours):
 
Tides and Currents Weather Stations Pressure Air Temp Water Temp Dewpoint Dewpoint Depression Visibility Wind Speed Wind Dir Waves Ship Positions

Santa Mae Laura

Last reported at 2016-Oct-11 09:30 UTC. Time now 2016-Dec-05 18:44 UTC.
Position N 39°46' W 009°25'.
Warning: this ship's position is 55 days out of date.

Length 24 m.

Type: Fishing. MMSI: 263432000.

Date/timePositionNaut miles runAvg speedWind from/ knotsBaromVisibWave heightAir tempDewpointWater temp
2016-Oct-11 09:30N 39°46' W 009°25'7 0.2
2016-Oct-09 17:21N 39°53' W 009°23'1 0.3
2016-Oct-09 15:29N 39°52' W 009°23'4 3.9
2016-Oct-09 14:26N 39°56' W 009°21'103 2.5
2016-Oct-07 21:17N 41°39' W 009°19'19 0.6
2016-Oct-06 15:28N 41°58' W 009°20'133 2.7
2016-Oct-04 14:33N 39°45' W 009°26'4 4.3
2016-Oct-04 13:33N 39°41' W 009°26'2 1.8
2016-Oct-04 12:33N 39°42' W 009°27'8 3.9
2016-Oct-04 10:33N 39°50' W 009°27'3 1.5
2016-Oct-04 08:33N 39°53' W 009°30'4 3.9
2016-Oct-04 07:33N 39°49' W 009°30'  

Dump ship's entire track history